Terminal Aerodrome Forecast
Issued by NWS

Home | Current Version | Previous Version | Text Only | Print | Product List | Glossary Off
Versions: 1 2 3 4 5 6 7 8 9 10 11 12 13 14 15 16 17 18 19

000
FTUS41 KCLE 191503 AAB
TAFFDY
TAF AMD
KFDY 191503Z 1915/2012 31012KT P6SM OVC035
      TEMPO 1915/1916 5SM -SN BKN028
     FM192300 27012KT P6SM BKN040
     FM200200 26010KT P6SM SCT040
     FM200800 23009KT P6SM FEW200=

USA.gov is the U.S. government's official web portal to all federal, state and local government web resources and services.